createdAt,value
2023-04-19T00:02:36.161Z,1.50
2023-04-19T00:06:38.014Z,1.40
2023-04-19T00:10:40.036Z,1.60
2023-04-19T00:14:41.806Z,1.95
2023-04-19T00:18:43.549Z,1.67
2023-04-19T00:22:45.262Z,1.65
2023-04-19T00:26:46.975Z,1.55
2023-04-19T00:30:48.740Z,1.58
2023-04-19T00:34:50.921Z,1.70
2023-04-19T00:38:52.976Z,2.03
2023-04-19T00:42:54.730Z,2.83
2023-04-19T00:46:57.301Z,2.25
2023-04-19T00:50:59.465Z,2.05
2023-04-19T00:55:01.720Z,2.15
2023-04-19T00:59:03.667Z,1.90
2023-04-19T01:03:08.210Z,1.83
2023-04-19T01:07:10.226Z,2.35
2023-04-19T01:11:12.228Z,2.83
2023-04-19T01:15:13.990Z,2.35
2023-04-19T01:19:16.820Z,2.85
2023-04-19T01:23:18.589Z,3.58
2023-04-19T01:27:20.477Z,3.33
2023-04-19T01:31:22.366Z,2.40
2023-04-19T01:35:24.133Z,2.95
2023-04-19T01:39:26.286Z,2.85
2023-04-19T01:43:27.975Z,2.20
2023-04-19T01:47:29.806Z,2.40
2023-04-19T01:51:31.557Z,1.90
2023-04-19T01:55:33.273Z,3.85
2023-04-19T01:59:35.073Z,3.00
2023-04-19T02:03:36.939Z,2.90
2023-04-19T02:07:38.767Z,3.55
2023-04-19T02:11:40.547Z,3.55
2023-04-19T02:15:42.236Z,2.42
2023-04-19T02:19:44.048Z,2.85
2023-04-19T02:23:45.858Z,2.08
2023-04-19T02:27:47.639Z,2.45
2023-04-19T02:31:50.226Z,2.25
2023-04-19T02:35:51.958Z,2.40
2023-04-19T02:39:53.743Z,2.60
2023-04-19T02:43:56.315Z,3.25
2023-04-19T02:47:59.627Z,2.85
2023-04-19T02:52:01.691Z,2.65
2023-04-19T02:56:03.881Z,2.58
2023-04-19T03:00:06.480Z,2.20
2023-04-19T03:04:08.539Z,2.58
2023-04-19T03:08:11.181Z,2.20
2023-04-19T03:12:13.401Z,1.95
2023-04-19T03:16:17.076Z,1.88
2023-04-19T03:20:21.109Z,2.30
2023-04-19T03:24:30.856Z,2.20
2023-04-19T03:28:37.034Z,2.47
2023-04-19T03:33:05.629Z,2.05
2023-04-19T03:37:07.678Z,2.42
2023-04-19T03:41:24.266Z,2.08
2023-04-19T03:45:43.140Z,2.03
2023-04-19T03:49:45.762Z,2.25
2023-04-19T03:53:48.515Z,3.42
2023-04-19T03:57:53.405Z,3.28
2023-04-19T04:02:06.548Z,2.40
2023-04-19T04:06:08.861Z,2.20
2023-04-19T04:10:11.217Z,2.10
2023-04-19T04:14:17.502Z,3.42
2023-04-19T04:18:21.464Z,2.53
2023-04-19T04:22:24.477Z,2.13
2023-04-19T04:26:30.742Z,2.08
2023-04-19T04:30:46.105Z,1.92
2023-04-19T04:34:49.158Z,2.05
2023-04-19T04:39:02.029Z,2.40
2023-04-19T04:43:06.140Z,2.33
2023-04-19T04:47:08.623Z,2.42
2023-04-19T04:51:16.912Z,2.20
2023-04-19T04:55:22.806Z,2.40
2023-04-19T04:59:24.807Z,2.17
2023-04-19T05:03:29.879Z,2.90
2023-04-19T05:07:34.709Z,3.47
2023-04-19T05:11:37.675Z,2.83
2023-04-19T05:15:40.404Z,4.00
2023-04-19T05:19:44.063Z,7.78
2023-04-19T05:23:46.383Z,7.75
2023-04-19T05:27:48.909Z,8.32
2023-04-19T05:31:50.960Z,8.48
2023-04-19T05:36:05.077Z,6.50
2023-04-19T05:40:10.111Z,6.82
2023-04-19T05:44:11.858Z,5.03
2023-04-19T05:48:13.759Z,5.28
2023-04-19T05:52:17.988Z,5.15
2023-04-19T05:56:30.089Z,6.55
2023-04-19T06:00:32.593Z,5.40
2023-04-19T06:04:42.567Z,4.13
2023-04-19T06:08:45.504Z,4.05
2023-04-19T06:12:47.370Z,4.28
2023-04-19T06:16:49.190Z,5.50
2023-04-19T06:20:53.225Z,6.10
2023-04-19T06:24:54.936Z,6.28
2023-04-19T06:28:56.682Z,6.57
2023-04-19T06:32:58.493Z,5.07
2023-04-19T06:37:00.657Z,6.13
2023-04-19T06:41:03.016Z,7.18
2023-04-19T06:45:05.457Z,6.38
2023-04-19T06:49:07.209Z,6.40
2023-04-19T06:53:08.914Z,6.63
2023-04-19T06:57:10.686Z,5.95
2023-04-19T07:01:13.129Z,5.63
2023-04-19T07:05:15.418Z,6.93
2023-04-19T07:09:17.512Z,7.72
2023-04-19T07:13:19.306Z,7.45
2023-04-19T07:17:21.080Z,7.22
2023-04-19T07:21:24.822Z,7.13
2023-04-19T07:25:27.213Z,6.15
2023-04-19T07:29:29.052Z,6.38
2023-04-19T07:33:31.240Z,7.95
2023-04-19T07:37:33.031Z,7.82
2023-04-19T07:41:36.070Z,8.70
2023-04-19T07:45:38.568Z,7.50
2023-04-19T07:49:40.370Z,9.38
2023-04-19T07:53:43.344Z,8.68
2023-04-19T07:57:48.203Z,9.38
2023-04-19T08:01:49.999Z,7.63
2023-04-19T08:05:51.906Z,9.65
2023-04-19T08:09:53.732Z,7.47
2023-04-19T08:14:06.957Z,9.45
2023-04-19T08:18:13.619Z,9.40
2023-04-19T08:22:17.180Z,7.05
2023-04-19T08:26:18.861Z,7.55
2023-04-19T08:30:21.037Z,7.60
2023-04-19T08:34:22.729Z,9.10
2023-04-19T08:38:24.461Z,6.60
2023-04-19T08:42:35.403Z,7.07
2023-04-19T08:46:38.382Z,7.03
2023-04-19T08:50:56.037Z,8.18
2023-04-19T08:55:05.658Z,6.97
2023-04-19T08:59:18.005Z,8.48
2023-04-19T09:03:21.120Z,7.43
2023-04-19T09:07:24.412Z,11.10
2023-04-19T09:11:40.898Z,10.65
2023-04-19T09:15:44.700Z,9.27
2023-04-19T09:19:48.393Z,6.97
2023-04-19T09:23:50.185Z,10.73
2023-04-19T09:27:51.967Z,10.38
2023-04-19T09:31:58.838Z,7.22
2023-04-19T09:36:01.728Z,7.18
2023-04-19T09:40:22.653Z,8.43
2023-04-19T09:48:29.280Z,9.35
2023-04-19T09:52:32.601Z,8.63
2023-04-19T09:56:36.486Z,8.75
2023-04-19T10:00:47.819Z,8.50
2023-04-19T10:09:01.866Z,7.88
2023-04-19T10:13:18.958Z,7.78
2023-04-19T10:17:23.586Z,7.78
2023-04-19T10:21:28.660Z,7.15
2023-04-19T10:25:30.825Z,5.20
2023-04-19T10:29:58.644Z,5.30
2023-04-19T10:34:00.461Z,4.60
2023-04-19T10:38:13.942Z,5.45
2023-04-19T10:42:15.657Z,4.65
2023-04-19T10:46:36.482Z,4.00
2023-04-19T10:51:14.527Z,3.28
2023-04-19T10:59:23.666Z,4.55
2023-04-19T11:03:43.597Z,2.75
2023-04-19T11:07:45.945Z,2.50
2023-04-19T11:11:47.648Z,3.20
2023-04-19T11:15:49.329Z,2.10
2023-04-19T11:20:08.383Z,1.50
2023-04-19T11:24:10.929Z,1.42
2023-04-19T11:28:17.573Z,1.65
2023-04-19T11:32:21.569Z,1.95
2023-04-19T11:36:23.282Z,2.22
2023-04-19T11:40:26.307Z,2.80
2023-04-19T11:44:28.146Z,2.30
2023-04-19T11:48:29.950Z,2.15
2023-04-19T11:52:35.477Z,2.50
2023-04-19T11:56:37.383Z,2.20
2023-04-19T12:00:39.167Z,2.70
2023-04-19T12:04:41.073Z,3.15
2023-04-19T12:08:47.315Z,2.60
2023-04-19T12:12:49.144Z,2.63
2023-04-19T12:17:08.460Z,2.72
2023-04-19T12:21:12.760Z,2.65
2023-04-19T12:25:14.755Z,1.90
2023-04-19T12:29:16.759Z,3.10
2023-04-19T12:33:18.554Z,2.30
2023-04-19T12:37:20.334Z,2.13
2023-04-19T12:41:22.674Z,2.17
2023-04-19T12:45:24.459Z,2.20
2023-04-19T12:49:26.392Z,2.20
2023-04-19T12:53:28.059Z,2.10
2023-04-19T12:57:30.256Z,2.53
2023-04-19T13:01:32.880Z,2.00
2023-04-19T13:05:34.718Z,3.13
2023-04-19T13:09:36.463Z,2.55
2023-04-19T13:13:38.174Z,1.83
2023-04-19T13:17:39.941Z,2.30
2023-04-19T13:21:41.969Z,2.85
2023-04-19T13:25:43.664Z,2.30
2023-04-19T13:29:45.728Z,3.38
2023-04-19T13:33:47.648Z,3.38
2023-04-19T13:37:49.395Z,2.90
2023-04-19T13:41:51.309Z,3.47
2023-04-19T13:45:52.997Z,3.22
2023-04-19T13:49:54.732Z,2.60
2023-04-19T13:53:56.409Z,2.47
2023-04-19T13:57:58.162Z,2.10
2023-04-19T14:02:00.047Z,2.28
2023-04-19T14:06:01.984Z,2.20
2023-04-19T14:10:03.888Z,2.15
2023-04-19T14:14:05.612Z,2.70
2023-04-19T14:18:07.372Z,2.45
2023-04-19T14:22:09.163Z,1.98
2023-04-19T14:26:10.965Z,1.60
2023-04-19T14:30:13.055Z,1.52
2023-04-19T14:34:14.766Z,1.80
2023-04-19T14:38:16.488Z,2.17
2023-04-19T14:42:20.773Z,2.08
2023-04-19T14:46:24.286Z,1.52
2023-04-19T14:50:26.269Z,1.90
2023-04-19T14:54:28.078Z,2.53
2023-04-19T14:58:29.805Z,2.30
2023-04-19T15:02:31.763Z,2.40
2023-04-19T15:06:33.949Z,2.63
2023-04-19T15:10:38.198Z,2.08
2023-04-19T15:14:40.943Z,1.50
2023-04-19T15:18:42.677Z,1.67
2023-04-19T15:22:44.387Z,1.63
2023-04-19T15:26:46.115Z,2.08
2023-04-19T15:30:59.658Z,2.42
2023-04-19T15:35:01.347Z,2.08
2023-04-19T15:39:03.489Z,2.50
2023-04-19T15:43:05.279Z,2.42
2023-04-19T15:47:06.988Z,2.03
2023-04-19T15:51:08.788Z,2.05
2023-04-19T15:55:10.483Z,2.88
2023-04-19T15:59:12.209Z,2.40
2023-04-19T16:03:14.067Z,2.10
2023-04-19T16:07:15.958Z,1.90
2023-04-19T16:11:17.702Z,2.10
2023-04-19T16:15:19.504Z,1.92
2023-04-19T16:19:24.865Z,2.53
2023-04-19T16:23:26.927Z,2.80
2023-04-19T16:27:28.679Z,1.65
2023-04-19T16:31:30.726Z,2.33
2023-04-19T16:35:32.518Z,2.65
2023-04-19T16:39:34.300Z,2.25
2023-04-19T16:43:36.960Z,1.90
2023-04-19T16:47:38.973Z,1.58
2023-04-19T16:51:40.831Z,2.00
2023-04-19T16:55:42.669Z,1.70
2023-04-19T16:59:44.477Z,1.65
2023-04-19T17:03:46.624Z,1.65
2023-04-19T17:07:48.578Z,1.60
2023-04-19T17:11:50.415Z,1.40
2023-04-19T17:15:52.589Z,1.80
2023-04-19T17:19:56.686Z,1.58
2023-04-19T17:23:58.685Z,1.60
2023-04-19T17:28:00.495Z,2.33
2023-04-19T17:32:02.297Z,2.00
2023-04-19T17:36:05.337Z,1.63
2023-04-19T17:40:07.687Z,1.60
2023-04-19T17:44:09.373Z,1.48
2023-04-19T17:48:11.252Z,1.50
2023-04-19T17:52:13.663Z,1.40
2023-04-19T17:56:15.427Z,1.65
2023-04-19T18:00:17.536Z,1.70
2023-04-19T18:04:20.043Z,1.45
2023-04-19T18:08:22.148Z,1.90
2023-04-19T18:12:23.948Z,2.70
2023-04-19T18:16:25.960Z,2.80
2023-04-19T18:20:27.775Z,3.13
2023-04-19T18:24:29.530Z,2.30
2023-04-19T18:28:31.505Z,1.60
2023-04-19T18:32:35.562Z,2.78
2023-04-19T18:36:37.396Z,3.22
2023-04-19T18:40:39.171Z,2.70
2023-04-19T18:44:51.974Z,1.80
2023-04-19T18:48:55.272Z,2.05
2023-04-19T18:52:57.027Z,1.92
2023-04-19T18:57:21.529Z,1.60
2023-04-19T19:01:21.256Z,2.17
2023-04-19T19:05:23.132Z,2.28
2023-04-19T19:09:25.440Z,2.70
2023-04-19T19:13:27.459Z,2.33
2023-04-19T19:17:29.231Z,2.15
2023-04-19T19:21:31.520Z,2.38
2023-04-19T19:25:33.281Z,2.40
2023-04-19T19:29:36.506Z,2.05
2023-04-19T19:33:40.417Z,2.33
2023-04-19T19:37:42.492Z,2.17
2023-04-19T19:45:49.585Z,2.30
2023-04-19T19:50:33.666Z,2.58
2023-04-19T19:54:12.963Z,2.75
2023-04-19T19:58:32.678Z,2.55
2023-04-19T20:10:45.841Z,2.40
2023-04-19T20:14:48.655Z,2.30
2023-04-19T20:18:50.381Z,2.03
2023-04-19T20:22:52.124Z,1.83
2023-04-19T20:26:53.803Z,1.67
2023-04-19T20:30:55.899Z,1.90
2023-04-19T20:34:57.844Z,2.20
2023-04-19T20:39:01.818Z,2.65
2023-04-19T20:43:04.025Z,2.53
2023-04-19T20:47:06.332Z,2.72
2023-04-19T20:51:08.110Z,2.60
2023-04-19T20:55:10.133Z,2.33
2023-04-19T20:59:11.846Z,2.13
2023-04-19T21:03:13.733Z,1.90
2023-04-19T21:07:15.985Z,1.92
2023-04-19T21:11:17.673Z,1.80
2023-04-19T21:15:19.708Z,2.30
2023-04-19T21:19:21.385Z,1.75
2023-04-19T21:23:23.140Z,1.70
2023-04-19T21:27:24.839Z,1.85
2023-04-19T21:31:26.571Z,1.65
2023-04-19T21:35:28.292Z,1.60
2023-04-19T21:39:29.987Z,1.90
2023-04-19T21:43:31.669Z,2.47
2023-04-19T21:47:33.387Z,2.05
2023-04-19T21:51:35.088Z,2.20
2023-04-19T21:55:36.768Z,2.00
2023-04-19T21:59:38.551Z,2.47
2023-04-19T22:03:40.583Z,3.58
2023-04-19T22:07:42.917Z,2.85
2023-04-19T22:11:45.769Z,2.90
2023-04-19T22:15:47.713Z,3.38
2023-04-19T22:19:49.419Z,2.83
2023-04-19T22:23:52.227Z,1.83
2023-04-19T22:27:53.937Z,1.67
2023-04-19T22:31:55.844Z,1.60
2023-04-19T22:35:57.605Z,1.42
2023-04-19T22:39:59.305Z,1.55
2023-04-19T22:44:01.044Z,1.75
2023-04-19T22:48:03.402Z,3.22
2023-04-19T22:52:05.230Z,3.22
2023-04-19T22:56:07.182Z,2.50
2023-04-19T23:00:12.638Z,3.35
2023-04-19T23:04:14.681Z,2.30
2023-04-19T23:08:16.425Z,2.95
2023-04-19T23:12:18.102Z,3.78
2023-04-19T23:16:19.994Z,3.50
2023-04-19T23:20:22.157Z,3.38
2023-04-19T23:24:24.222Z,3.35
2023-04-19T23:28:25.906Z,2.35
2023-04-19T23:32:27.627Z,2.60
2023-04-19T23:36:29.458Z,2.67
2023-04-19T23:40:31.387Z,2.67
2023-04-19T23:44:33.146Z,2.30
2023-04-19T23:48:35.033Z,1.83
2023-04-19T23:52:36.796Z,2.17
2023-04-19T23:56:38.551Z,1.98
